createdAt,value
2023-01-17T00:01:37.092Z,65.00
2023-01-17T00:03:37.097Z,65.00
2023-01-17T00:05:37.174Z,65.00
2023-01-17T00:07:37.075Z,65.00
2023-01-17T00:09:37.079Z,65.00
2023-01-17T00:11:37.095Z,65.00
2023-01-17T00:13:37.079Z,64.00
2023-01-17T00:15:37.157Z,64.00
2023-01-17T00:17:37.141Z,64.00
2023-01-17T00:19:37.176Z,64.00
2023-01-17T00:22:07.105Z,64.00
2023-01-17T00:24:07.147Z,64.00
2023-01-17T00:26:07.144Z,64.00
2023-01-17T00:28:07.102Z,65.00
2023-01-17T00:30:07.136Z,68.00
2023-01-17T00:32:07.080Z,70.00
2023-01-17T00:34:07.107Z,70.00
2023-01-17T00:36:07.106Z,71.00
2023-01-17T00:38:07.110Z,73.00
2023-01-17T00:40:07.098Z,73.00
2023-01-17T00:42:07.281Z,73.00
2023-01-17T00:44:07.108Z,73.00
2023-01-17T00:46:07.088Z,75.00
2023-01-17T00:48:07.136Z,75.00
2023-01-17T00:50:07.172Z,76.00
2023-01-17T00:52:07.123Z,76.00
2023-01-17T00:54:07.103Z,76.00
2023-01-17T00:56:07.199Z,76.00
2023-01-17T00:58:07.122Z,77.00
2023-01-17T01:02:07.278Z,77.00
2023-01-17T01:04:18.342Z,77.00
2023-01-17T01:06:18.320Z,77.00
2023-01-17T01:08:18.320Z,77.00
2023-01-17T01:10:18.315Z,77.00
2023-01-17T01:12:18.309Z,77.00
2023-01-17T01:14:18.325Z,77.00
2023-01-17T01:16:18.476Z,78.00
2023-01-17T01:18:18.410Z,78.00
2023-01-17T01:20:18.340Z,78.00
2023-01-17T01:22:18.303Z,78.00
2023-01-17T01:24:18.305Z,78.00
2023-01-17T01:26:18.296Z,78.00
2023-01-17T01:28:18.357Z,78.00
2023-01-17T01:30:18.338Z,78.00
2023-01-17T01:32:18.343Z,78.00
2023-01-17T01:34:18.435Z,78.00
2023-01-17T01:36:18.430Z,78.00
2023-01-17T01:38:18.317Z,78.00
2023-01-17T01:40:18.322Z,78.00
2023-01-17T01:42:18.311Z,78.00
2023-01-17T01:44:18.313Z,78.00
2023-01-17T01:46:18.323Z,78.00
2023-01-17T01:48:18.420Z,78.00
2023-01-17T01:50:18.325Z,78.00
2023-01-17T01:52:18.330Z,78.00
2023-01-17T01:54:18.347Z,78.00
2023-01-17T01:56:18.346Z,78.00
2023-01-17T01:58:18.299Z,78.00
2023-01-17T02:00:18.311Z,78.00
2023-01-17T02:02:18.334Z,77.00
2023-01-17T02:04:18.299Z,77.00
2023-01-17T02:06:18.347Z,77.00
2023-01-17T02:08:18.332Z,77.00
2023-01-17T02:10:18.330Z,76.00
2023-01-17T02:12:18.369Z,76.00
2023-01-17T02:14:18.313Z,76.00
2023-01-17T02:16:18.490Z,76.00
2023-01-17T02:18:18.364Z,76.00
2023-01-17T02:20:18.340Z,76.00
2023-01-17T02:22:18.341Z,76.00
2023-01-17T02:24:18.394Z,76.00
2023-01-17T02:26:18.343Z,76.00
2023-01-17T02:28:18.346Z,77.00
2023-01-17T02:30:18.481Z,77.00
2023-01-17T02:32:18.377Z,77.00
2023-01-17T02:34:18.334Z,77.00
2023-01-17T02:36:18.707Z,77.00
2023-01-17T02:38:18.361Z,76.00
2023-01-17T02:40:18.373Z,76.00
2023-01-17T02:42:18.365Z,75.00
2023-01-17T02:44:18.355Z,75.00
2023-01-17T02:46:48.354Z,75.00
2023-01-17T02:48:48.353Z,75.00
2023-01-17T02:50:48.364Z,75.00
2023-01-17T02:52:48.393Z,74.00
2023-01-17T02:54:48.377Z,74.00
2023-01-17T02:56:48.367Z,74.00
2023-01-17T02:58:48.464Z,74.00
2023-01-17T03:00:48.450Z,73.00
2023-01-17T03:02:48.398Z,73.00
2023-01-17T03:04:48.333Z,73.00
2023-01-17T03:06:48.347Z,73.00
2023-01-17T03:08:48.364Z,73.00
2023-01-17T03:10:48.379Z,73.00
2023-01-17T03:12:48.389Z,73.00
2023-01-17T03:14:48.457Z,73.00
2023-01-17T03:16:48.568Z,73.00
2023-01-17T03:18:48.346Z,73.00
2023-01-17T03:20:48.364Z,73.00
2023-01-17T03:22:48.343Z,73.00
2023-01-17T03:24:48.364Z,73.00
2023-01-17T03:26:48.377Z,73.00
2023-01-17T03:28:48.360Z,72.00
2023-01-17T03:30:48.389Z,72.00
2023-01-17T03:32:48.389Z,72.00
2023-01-17T03:34:48.385Z,72.00
2023-01-17T03:36:48.380Z,72.00
2023-01-17T03:38:48.354Z,72.00
2023-01-17T03:40:48.471Z,72.00
2023-01-17T03:42:48.464Z,73.00
2023-01-17T03:44:48.382Z,73.00
2023-01-17T03:46:48.356Z,73.00
2023-01-17T03:48:48.361Z,72.00
2023-01-17T03:50:48.379Z,73.00
2023-01-17T03:52:48.356Z,72.00
2023-01-17T03:54:48.431Z,73.00
2023-01-17T03:56:48.388Z,73.00
2023-01-17T03:58:48.408Z,73.00
2023-01-17T04:00:48.456Z,73.00
2023-01-17T04:02:48.442Z,73.00
2023-01-17T04:04:48.409Z,73.00
2023-01-17T04:06:48.417Z,73.00
2023-01-17T04:08:48.417Z,73.00
2023-01-17T04:10:48.368Z,73.00
2023-01-17T04:12:48.360Z,73.00
2023-01-17T04:14:48.373Z,73.00
2023-01-17T04:16:48.460Z,73.00
2023-01-17T04:18:48.382Z,74.00
2023-01-17T04:20:48.396Z,74.00
2023-01-17T04:22:48.392Z,74.00
2023-01-17T04:24:48.399Z,74.00
2023-01-17T04:26:48.403Z,74.00
2023-01-17T04:29:18.504Z,74.00
2023-01-17T04:31:18.528Z,74.00
2023-01-17T04:33:18.395Z,74.00
2023-01-17T04:35:18.401Z,74.00
2023-01-17T04:37:18.416Z,74.00
2023-01-17T04:39:18.433Z,74.00
2023-01-17T04:41:18.413Z,74.00
2023-01-17T04:43:18.414Z,74.00
2023-01-17T04:45:18.400Z,74.00
2023-01-17T04:47:18.372Z,74.00
2023-01-17T04:49:18.401Z,74.00
2023-01-17T04:51:18.450Z,75.00
2023-01-17T04:53:18.409Z,75.00
2023-01-17T04:55:18.605Z,75.00
2023-01-17T04:57:18.426Z,75.00
2023-01-17T04:59:18.499Z,75.00
2023-01-17T05:01:18.711Z,75.00
2023-01-17T05:03:18.420Z,75.00
2023-01-17T05:05:18.408Z,75.00
2023-01-17T05:07:18.530Z,75.00
2023-01-17T05:09:18.436Z,75.00
2023-01-17T05:11:18.395Z,75.00
2023-01-17T05:13:18.512Z,76.00
2023-01-17T05:15:18.421Z,76.00
2023-01-17T05:17:18.443Z,76.00
2023-01-17T05:19:21.288Z,76.00
2023-01-17T05:21:18.432Z,76.00
2023-01-17T05:23:18.474Z,76.00
2023-01-17T05:25:18.433Z,76.00
2023-01-17T05:27:18.419Z,76.00
2023-01-17T05:29:18.440Z,76.00
2023-01-17T05:31:18.452Z,77.00
2023-01-17T05:33:21.211Z,77.00
2023-01-17T05:35:18.462Z,78.00
2023-01-17T05:37:18.417Z,78.00
2023-01-17T05:39:18.521Z,78.00
2023-01-17T05:41:18.401Z,78.00
2023-01-17T05:43:19.771Z,78.00
2023-01-17T05:45:18.565Z,78.00
2023-01-17T05:47:18.445Z,78.00
2023-01-17T05:49:18.563Z,78.00
2023-01-17T05:51:18.406Z,78.00
2023-01-17T05:53:18.469Z,78.00
2023-01-17T05:55:18.462Z,78.00
2023-01-17T05:57:18.642Z,78.00
2023-01-17T05:59:25.588Z,78.00
2023-01-17T06:01:18.477Z,78.00
2023-01-17T06:03:18.434Z,78.00
2023-01-17T06:05:18.469Z,78.00
2023-01-17T06:07:18.505Z,78.00
2023-01-17T06:09:18.463Z,78.00
2023-01-17T06:11:48.427Z,78.00
2023-01-17T06:13:48.628Z,79.00
2023-01-17T06:15:48.471Z,79.00
2023-01-17T06:17:48.423Z,79.00
2023-01-17T06:19:48.456Z,79.00
2023-01-17T06:21:48.464Z,79.00
2023-01-17T06:23:48.452Z,78.00
2023-01-17T06:25:48.477Z,78.00
2023-01-17T06:27:48.506Z,78.00
2023-01-17T06:29:48.461Z,78.00
2023-01-17T06:31:48.454Z,78.00
2023-01-17T06:33:48.447Z,79.00
2023-01-17T06:35:48.483Z,79.00
2023-01-17T06:37:48.528Z,79.00
2023-01-17T06:39:48.491Z,79.00
2023-01-17T06:41:48.559Z,79.00
2023-01-17T06:43:48.554Z,79.00
2023-01-17T06:45:51.154Z,79.00
2023-01-17T06:47:48.459Z,79.00
2023-01-17T06:49:48.475Z,79.00
2023-01-17T06:51:48.445Z,79.00
2023-01-17T06:53:48.657Z,79.00
2023-01-17T06:55:48.474Z,79.00
2023-01-17T06:57:48.556Z,79.00
2023-01-17T06:59:48.520Z,79.00
2023-01-17T07:01:48.477Z,79.00
2023-01-17T07:03:48.545Z,79.00
2023-01-17T07:05:48.521Z,79.00
2023-01-17T07:07:48.473Z,79.00
2023-01-17T07:09:48.471Z,79.00
2023-01-17T07:11:51.212Z,79.00
2023-01-17T07:13:48.553Z,79.00
2023-01-17T07:15:48.521Z,79.00
2023-01-17T07:17:48.594Z,79.00
2023-01-17T07:19:48.509Z,79.00
2023-01-17T07:21:48.461Z,79.00
2023-01-17T07:23:48.452Z,79.00
2023-01-17T07:25:48.549Z,79.00
2023-01-17T07:27:48.461Z,79.00
2023-01-17T07:29:48.682Z,79.00
2023-01-17T07:31:48.550Z,78.00
2023-01-17T07:33:48.467Z,78.00
2023-01-17T07:35:48.497Z,78.00
2023-01-17T07:37:48.940Z,78.00
2023-01-17T07:39:48.548Z,77.00
2023-01-17T07:41:48.456Z,76.00
2023-01-17T07:43:48.459Z,76.00
2023-01-17T07:45:48.527Z,76.00
2023-01-17T07:47:48.496Z,76.00
2023-01-17T07:49:48.562Z,75.00
2023-01-17T07:51:48.533Z,75.00
2023-01-17T07:54:20.639Z,74.00
2023-01-17T07:56:18.536Z,74.00
2023-01-17T07:58:18.577Z,74.00
2023-01-17T07:59:59.456Z,73.00
2023-01-17T08:01:59.557Z,73.00
2023-01-17T08:03:59.447Z,73.00
2023-01-17T08:05:59.487Z,72.00
2023-01-17T08:07:59.438Z,72.00
2023-01-17T08:09:59.482Z,72.00
2023-01-17T08:11:59.475Z,72.00
2023-01-17T08:13:59.446Z,72.00
2023-01-17T08:15:59.853Z,71.00
2023-01-17T08:17:59.420Z,70.00
2023-01-17T08:19:59.487Z,70.00
2023-01-17T08:21:59.458Z,70.00
2023-01-17T08:23:59.443Z,70.00
2023-01-17T08:25:59.481Z,69.00
2023-01-17T08:27:59.466Z,69.00
2023-01-17T08:30:29.431Z,69.00
2023-01-17T08:32:29.467Z,69.00
2023-01-17T08:34:29.482Z,69.00
2023-01-17T08:36:29.509Z,69.00
2023-01-17T08:38:29.458Z,69.00
2023-01-17T08:40:29.437Z,70.00
2023-01-17T08:42:29.503Z,70.00
2023-01-17T08:44:29.495Z,69.00
2023-01-17T08:46:31.387Z,69.00
2023-01-17T08:48:29.488Z,70.00
2023-01-17T08:50:29.459Z,70.00
2023-01-17T08:52:29.574Z,70.00
2023-01-17T08:54:29.474Z,69.00
2023-01-17T08:56:29.570Z,69.00
2023-01-17T08:58:30.611Z,69.00
2023-01-17T09:00:29.493Z,69.00
2023-01-17T09:02:29.464Z,69.00
2023-01-17T09:04:29.537Z,69.00
2023-01-17T09:06:29.468Z,69.00
2023-01-17T09:08:29.451Z,68.00
2023-01-17T09:10:29.455Z,68.00
2023-01-17T09:12:29.496Z,68.00
2023-01-17T09:14:29.483Z,68.00
2023-01-17T09:16:29.535Z,68.00
2023-01-17T09:18:29.553Z,68.00
2023-01-17T09:20:29.499Z,68.00
2023-01-17T09:22:29.498Z,68.00
2023-01-17T09:24:29.514Z,67.00
2023-01-17T09:26:29.489Z,67.00
2023-01-17T09:28:29.477Z,67.00
2023-01-17T09:30:29.636Z,67.00
2023-01-17T09:32:29.512Z,67.00
2023-01-17T09:34:29.496Z,67.00
2023-01-17T09:36:29.503Z,67.00
2023-01-17T09:38:29.771Z,67.00
2023-01-17T09:40:29.465Z,66.00
2023-01-17T09:42:29.474Z,66.00
2023-01-17T09:44:29.481Z,66.00
2023-01-17T09:46:29.498Z,66.00
2023-01-17T09:48:29.517Z,66.00
2023-01-17T09:50:29.481Z,66.00
2023-01-17T09:52:29.479Z,66.00
2023-01-17T09:54:29.575Z,66.00
2023-01-17T09:56:29.556Z,66.00
2023-01-17T09:58:29.522Z,66.00
2023-01-17T10:00:29.534Z,65.00
2023-01-17T10:02:29.699Z,65.00
2023-01-17T10:04:29.489Z,65.00
2023-01-17T10:06:29.505Z,65.00
2023-01-17T10:08:30.195Z,64.00
2023-01-17T10:10:29.589Z,64.00
2023-01-17T10:12:59.511Z,64.00
2023-01-17T10:14:59.515Z,64.00
2023-01-17T10:17:00.009Z,64.00
2023-01-17T10:18:59.545Z,64.00
2023-01-17T10:20:59.491Z,64.00
2023-01-17T10:22:59.503Z,63.00
2023-01-17T10:24:59.533Z,63.00
2023-01-17T10:26:59.605Z,63.00
2023-01-17T10:28:59.521Z,62.00
2023-01-17T10:30:59.556Z,62.00
2023-01-17T10:32:59.485Z,63.00
2023-01-17T10:34:59.546Z,62.00
2023-01-17T10:36:59.559Z,59.00
2023-01-17T10:38:59.490Z,59.00
2023-01-17T10:40:59.572Z,59.00
2023-01-17T10:42:59.505Z,57.00
2023-01-17T10:44:59.505Z,57.00
2023-01-17T10:46:59.550Z,56.00
2023-01-17T10:48:59.514Z,56.00
2023-01-17T10:50:59.545Z,55.00
2023-01-17T10:52:59.544Z,55.00
2023-01-17T10:54:59.603Z,53.00
2023-01-17T10:56:59.537Z,53.00
2023-01-17T10:58:59.536Z,53.00
2023-01-17T11:00:59.567Z,54.00
2023-01-17T11:02:59.556Z,53.00
2023-01-17T11:04:59.553Z,53.00
2023-01-17T11:06:59.538Z,53.00
2023-01-17T11:08:59.523Z,53.00
2023-01-17T11:10:59.643Z,53.00
2023-01-17T11:12:59.545Z,53.00
2023-01-17T11:14:59.562Z,53.00
2023-01-17T11:16:59.545Z,53.00
2023-01-17T11:18:59.777Z,53.00
2023-01-17T11:20:59.570Z,53.00
2023-01-17T11:22:59.581Z,53.00
2023-01-17T11:24:59.618Z,53.00
2023-01-17T11:26:59.570Z,53.00
2023-01-17T11:28:59.574Z,54.00
2023-01-17T11:30:59.554Z,54.00
2023-01-17T11:32:59.582Z,54.00
2023-01-17T11:34:59.519Z,54.00
2023-01-17T11:36:59.592Z,56.00
2023-01-17T11:38:59.721Z,55.00
2023-01-17T11:40:59.551Z,55.00
2023-01-17T11:42:59.541Z,55.00
2023-01-17T11:44:59.575Z,55.00
2023-01-17T11:46:59.781Z,55.00
2023-01-17T11:48:59.614Z,55.00
2023-01-17T11:50:59.547Z,55.00
2023-01-17T11:52:59.559Z,55.00
2023-01-17T11:54:59.597Z,55.00
2023-01-17T11:56:59.587Z,55.00
2023-01-17T11:58:59.601Z,55.00
2023-01-17T12:00:59.656Z,55.00
2023-01-17T12:03:29.667Z,55.00
2023-01-17T12:05:29.566Z,54.00
2023-01-17T12:07:29.610Z,54.00
2023-01-17T12:09:29.568Z,55.00
2023-01-17T12:11:29.592Z,54.00
2023-01-17T12:13:29.627Z,54.00
2023-01-17T12:15:29.613Z,54.00
2023-01-17T12:17:29.564Z,54.00
2023-01-17T12:19:29.575Z,55.00
2023-01-17T12:21:29.580Z,54.00
2023-01-17T12:23:29.595Z,54.00
2023-01-17T12:25:29.577Z,54.00
2023-01-17T12:27:29.627Z,54.00
2023-01-17T12:29:29.581Z,54.00
2023-01-17T12:31:29.586Z,54.00
2023-01-17T12:33:29.623Z,54.00
2023-01-17T12:35:29.611Z,54.00
2023-01-17T12:37:29.646Z,54.00
2023-01-17T12:39:29.758Z,54.00
2023-01-17T12:41:29.577Z,54.00
2023-01-17T12:43:29.580Z,54.00
2023-01-17T12:45:29.588Z,54.00
2023-01-17T12:47:29.596Z,54.00
2023-01-17T12:49:29.612Z,54.00
2023-01-17T12:51:29.607Z,54.00
2023-01-17T12:53:29.755Z,55.00
2023-01-17T12:55:29.613Z,55.00
2023-01-17T12:57:29.725Z,55.00
2023-01-17T12:59:29.622Z,55.00
2023-01-17T13:01:29.734Z,55.00
2023-01-17T13:03:29.723Z,55.00
2023-01-17T13:05:29.663Z,55.00
2023-01-17T13:07:29.670Z,56.00
2023-01-17T13:09:29.770Z,56.00
2023-01-17T13:11:29.675Z,56.00
2023-01-17T13:13:29.601Z,56.00
2023-01-17T13:15:29.700Z,56.00
2023-01-17T13:17:29.726Z,56.00
2023-01-17T13:19:29.615Z,56.00
2023-01-17T13:21:29.680Z,57.00
2023-01-17T13:23:29.679Z,57.00
2023-01-17T13:25:29.691Z,56.00
2023-01-17T13:27:29.710Z,56.00
2023-01-17T13:29:29.817Z,56.00
2023-01-17T13:31:29.693Z,56.00
2023-01-17T13:33:29.850Z,57.00
2023-01-17T13:35:29.646Z,57.00
2023-01-17T13:37:29.717Z,57.00
2023-01-17T13:39:29.689Z,57.00
2023-01-17T13:41:29.686Z,57.00
2023-01-17T13:43:29.711Z,57.00
2023-01-17T13:45:29.874Z,58.00
2023-01-17T13:47:29.842Z,58.00
2023-01-17T13:49:59.672Z,57.00
2023-01-17T13:51:59.643Z,57.00
2023-01-17T13:53:59.633Z,57.00
2023-01-17T13:55:59.820Z,57.00
2023-01-17T13:57:59.741Z,57.00
2023-01-17T13:59:59.761Z,57.00
2023-01-17T14:01:59.699Z,57.00
2023-01-17T14:03:59.637Z,57.00
2023-01-17T14:05:59.656Z,57.00
2023-01-17T14:08:00.755Z,58.00
2023-01-17T14:09:59.914Z,58.00
2023-01-17T14:11:59.716Z,57.00
2023-01-17T14:13:59.838Z,57.00
2023-01-17T14:15:59.784Z,57.00
2023-01-17T14:17:59.715Z,58.00
2023-01-17T14:19:59.659Z,58.00
2023-01-17T14:22:00.542Z,57.00
2023-01-17T14:23:59.703Z,58.00
2023-01-17T14:25:59.751Z,57.00
2023-01-17T14:27:59.805Z,58.00
2023-01-17T14:29:59.778Z,58.00
2023-01-17T14:32:00.008Z,57.00
2023-01-17T14:34:01.310Z,58.00
2023-01-17T14:35:59.679Z,58.00
2023-01-17T14:37:59.774Z,58.00
2023-01-17T14:39:59.764Z,59.00
2023-01-17T14:41:59.799Z,59.00
2023-01-17T14:43:59.871Z,59.00
2023-01-17T14:45:59.916Z,59.00
2023-01-17T14:48:00.669Z,59.00
2023-01-17T14:52:03.128Z,59.00
2023-01-17T14:53:59.742Z,60.00
2023-01-17T14:55:59.807Z,60.00
2023-01-17T14:57:59.848Z,60.00
2023-01-17T15:02:07.719Z,60.00
2023-01-17T15:03:59.772Z,61.00
2023-01-17T15:05:59.763Z,61.00
2023-01-17T15:07:59.824Z,61.00
2023-01-17T15:11:58.261Z,61.00
2023-01-17T15:13:58.270Z,61.00
2023-01-17T15:15:58.279Z,61.00
2023-01-17T15:17:58.287Z,62.00
2023-01-17T15:19:58.197Z,62.00
2023-01-17T15:21:58.293Z,62.00
2023-01-17T15:23:58.200Z,62.00
2023-01-17T15:25:58.326Z,62.00
2023-01-17T15:27:58.227Z,62.00
2023-01-17T15:29:58.236Z,63.00
2023-01-17T15:32:28.283Z,63.00
2023-01-17T15:34:28.331Z,63.00
2023-01-17T15:36:28.390Z,63.00
2023-01-17T15:38:33.545Z,63.00
2023-01-17T15:40:28.326Z,63.00
2023-01-17T15:42:28.220Z,63.00
2023-01-17T15:44:33.423Z,63.00
2023-01-17T15:46:28.310Z,63.00
2023-01-17T15:48:28.359Z,63.00
2023-01-17T15:50:28.202Z,63.00
2023-01-17T15:52:28.342Z,63.00
2023-01-17T15:54:28.217Z,63.00
2023-01-17T15:56:28.246Z,63.00
2023-01-17T15:58:28.362Z,64.00
2023-01-17T16:00:28.292Z,64.00
2023-01-17T16:02:28.417Z,64.00
2023-01-17T16:04:28.396Z,64.00
2023-01-17T16:06:28.261Z,64.00
2023-01-17T16:08:28.220Z,64.00
2023-01-17T16:10:28.234Z,64.00
2023-01-17T16:12:28.344Z,64.00
2023-01-17T16:14:32.339Z,64.00
2023-01-17T16:16:28.377Z,64.00
2023-01-17T16:18:28.231Z,64.00
2023-01-17T16:20:28.218Z,65.00
2023-01-17T16:22:28.265Z,65.00
2023-01-17T16:24:28.213Z,65.00
2023-01-17T16:26:28.201Z,65.00
2023-01-17T16:28:28.363Z,65.00
2023-01-17T16:30:28.356Z,65.00
2023-01-17T16:32:28.311Z,65.00
2023-01-17T16:34:28.177Z,65.00
2023-01-17T16:36:28.240Z,65.00
2023-01-17T16:38:28.231Z,65.00
2023-01-17T16:40:28.230Z,65.00
2023-01-17T16:42:28.713Z,65.00
2023-01-17T16:44:28.386Z,65.00
2023-01-17T16:46:28.239Z,65.00
2023-01-17T16:48:28.233Z,66.00
2023-01-17T16:50:28.211Z,66.00
2023-01-17T16:52:28.339Z,66.00
2023-01-17T16:54:28.210Z,66.00
2023-01-17T16:56:28.263Z,66.00
2023-01-17T16:58:28.306Z,66.00
2023-01-17T17:00:28.213Z,66.00
2023-01-17T17:02:28.249Z,66.00
2023-01-17T17:04:28.287Z,66.00
2023-01-17T17:06:28.259Z,65.00
2023-01-17T17:08:28.249Z,65.00
2023-01-17T17:10:28.234Z,65.00
2023-01-17T17:12:28.315Z,65.00
2023-01-17T17:14:28.189Z,65.00
2023-01-17T17:16:28.235Z,65.00
2023-01-17T17:18:58.308Z,65.00
2023-01-17T17:20:58.393Z,66.00
2023-01-17T17:22:58.273Z,66.00
2023-01-17T17:24:58.247Z,66.00
2023-01-17T17:26:58.199Z,66.00
2023-01-17T17:28:58.311Z,66.00
2023-01-17T17:30:58.378Z,67.00
2023-01-17T17:32:58.347Z,67.00
2023-01-17T17:34:58.237Z,67.00
2023-01-17T17:36:58.245Z,66.00
2023-01-17T17:38:58.258Z,66.00
2023-01-17T17:40:58.272Z,66.00
2023-01-17T17:42:58.296Z,66.00
2023-01-17T17:44:58.321Z,66.00
2023-01-17T17:46:58.353Z,66.00
2023-01-17T17:48:58.311Z,66.00
2023-01-17T17:50:59.662Z,66.00
2023-01-17T17:52:58.248Z,66.00
2023-01-17T17:54:58.351Z,67.00
2023-01-17T17:56:58.292Z,67.00
2023-01-17T17:58:58.338Z,67.00
2023-01-17T18:00:58.268Z,67.00
2023-01-17T18:02:58.228Z,67.00
2023-01-17T18:04:58.376Z,67.00
2023-01-17T18:06:58.260Z,67.00
2023-01-17T18:08:58.259Z,67.00
2023-01-17T18:10:58.231Z,67.00
2023-01-17T18:12:58.321Z,67.00
2023-01-17T18:14:58.337Z,67.00
2023-01-17T18:16:58.350Z,67.00
2023-01-17T18:18:58.386Z,67.00
2023-01-17T18:20:58.265Z,67.00
2023-01-17T18:22:58.256Z,67.00
2023-01-17T18:24:58.266Z,67.00
2023-01-17T18:26:58.264Z,67.00
2023-01-17T18:28:58.342Z,67.00
2023-01-17T18:30:58.345Z,67.00
2023-01-17T18:32:58.269Z,67.00
2023-01-17T18:34:58.347Z,67.00
2023-01-17T18:36:58.280Z,67.00
2023-01-17T18:38:58.318Z,67.00
2023-01-17T18:40:58.496Z,67.00
2023-01-17T18:42:58.356Z,67.00
2023-01-17T18:44:58.386Z,67.00
2023-01-17T18:46:58.436Z,67.00
2023-01-17T18:48:58.268Z,67.00
2023-01-17T18:50:58.303Z,67.00
2023-01-17T18:52:58.320Z,67.00
2023-01-17T18:54:58.349Z,67.00
2023-01-17T18:56:58.356Z,67.00
2023-01-17T18:58:58.299Z,67.00
2023-01-17T19:00:58.583Z,67.00
2023-01-17T19:02:58.464Z,67.00
2023-01-17T19:05:28.367Z,67.00
2023-01-17T19:07:28.330Z,67.00
2023-01-17T19:09:28.300Z,67.00
2023-01-17T19:11:28.293Z,67.00
2023-01-17T19:13:28.372Z,67.00
2023-01-17T19:15:28.360Z,67.00
2023-01-17T19:17:28.372Z,67.00
2023-01-17T19:19:28.415Z,68.00
2023-01-17T19:21:28.308Z,68.00
2023-01-17T19:23:28.314Z,68.00
2023-01-17T19:25:28.343Z,68.00
2023-01-17T19:27:28.348Z,69.00
2023-01-17T19:29:28.357Z,69.00
2023-01-17T19:31:28.465Z,69.00
2023-01-17T19:33:28.273Z,69.00
2023-01-17T19:35:28.409Z,69.00
2023-01-17T19:37:28.359Z,69.00
2023-01-17T19:39:28.339Z,69.00
2023-01-17T19:41:28.566Z,69.00
2023-01-17T19:43:28.375Z,69.00
2023-01-17T19:45:28.373Z,70.00
2023-01-17T19:47:28.298Z,70.00
2023-01-17T19:49:28.313Z,70.00
2023-01-17T19:51:28.336Z,70.00
2023-01-17T19:53:28.375Z,70.00
2023-01-17T19:55:28.387Z,71.00
2023-01-17T19:57:28.413Z,72.00
2023-01-17T19:59:28.438Z,72.00
2023-01-17T20:01:28.492Z,72.00
2023-01-17T20:03:28.336Z,72.00
2023-01-17T20:05:28.293Z,73.00
2023-01-17T20:07:28.345Z,73.00
2023-01-17T20:09:28.373Z,73.00
2023-01-17T20:11:28.369Z,73.00
2023-01-17T20:13:28.374Z,73.00
2023-01-17T20:15:28.442Z,74.00
2023-01-17T20:17:28.405Z,74.00
2023-01-17T20:19:28.574Z,74.00
2023-01-17T20:21:28.312Z,74.00
2023-01-17T20:23:28.359Z,74.00
2023-01-17T20:25:28.394Z,75.00
2023-01-17T20:27:28.416Z,75.00
2023-01-17T20:29:28.407Z,75.00
2023-01-17T20:31:28.463Z,75.00
2023-01-17T20:33:28.407Z,76.00
2023-01-17T20:35:28.332Z,76.00
2023-01-17T20:37:28.317Z,76.00
2023-01-17T20:39:28.368Z,76.00
2023-01-17T20:41:28.347Z,76.00
2023-01-17T20:43:28.490Z,76.00
2023-01-17T20:45:28.591Z,76.00
2023-01-17T20:47:28.445Z,77.00
2023-01-17T20:49:28.447Z,77.00
2023-01-17T20:51:58.365Z,77.00
2023-01-17T20:53:58.373Z,77.00
2023-01-17T20:55:58.451Z,77.00
2023-01-17T20:57:58.659Z,77.00
2023-01-17T20:59:58.466Z,77.00
2023-01-17T21:01:58.598Z,77.00
2023-01-17T21:03:58.408Z,77.00
2023-01-17T21:05:58.373Z,78.00
2023-01-17T21:07:58.639Z,78.00
2023-01-17T21:09:58.395Z,78.00
2023-01-17T21:11:58.406Z,78.00
2023-01-17T21:13:58.447Z,78.00
2023-01-17T21:15:58.482Z,78.00
2023-01-17T21:17:58.585Z,78.00
2023-01-17T21:19:58.466Z,78.00
2023-01-17T21:21:58.362Z,78.00
2023-01-17T21:23:58.388Z,78.00
2023-01-17T21:25:58.433Z,78.00
2023-01-17T21:27:58.735Z,78.00
2023-01-17T21:29:58.528Z,78.00
2023-01-17T21:31:58.359Z,78.00
2023-01-17T21:33:58.487Z,78.00
2023-01-17T21:35:58.349Z,78.00
2023-01-17T21:37:58.968Z,78.00
2023-01-17T21:39:58.404Z,78.00
2023-01-17T21:41:58.471Z,78.00
2023-01-17T21:43:58.439Z,78.00
2023-01-17T21:45:58.457Z,78.00
2023-01-17T21:47:58.590Z,78.00
2023-01-17T21:49:58.611Z,78.00
2023-01-17T21:51:58.455Z,79.00
2023-01-17T21:53:58.395Z,79.00
2023-01-17T21:55:58.409Z,79.00
2023-01-17T21:57:58.796Z,79.00
2023-01-17T21:59:58.549Z,79.00
2023-01-17T22:01:58.451Z,79.00
2023-01-17T22:03:58.401Z,79.00
2023-01-17T22:05:58.357Z,79.00
2023-01-17T22:07:58.740Z,79.00
2023-01-17T22:09:58.480Z,79.00
2023-01-17T22:11:58.359Z,79.00
2023-01-17T22:13:59.314Z,79.00
2023-01-17T22:15:58.534Z,79.00
2023-01-17T22:17:58.691Z,79.00
2023-01-17T22:19:58.544Z,79.00
2023-01-17T22:21:58.497Z,79.00
2023-01-17T22:23:58.533Z,79.00
2023-01-17T22:25:58.473Z,79.00
2023-01-17T22:27:58.920Z,79.00
2023-01-17T22:29:58.503Z,79.00
2023-01-17T22:31:58.511Z,79.00
2023-01-17T22:35:58.505Z,79.00
2023-01-17T22:38:09.997Z,79.00
2023-01-17T22:40:09.875Z,79.00
2023-01-17T22:42:10.031Z,79.00
2023-01-17T22:44:10.953Z,79.00
2023-01-17T22:46:10.020Z,79.00
2023-01-17T22:48:09.914Z,79.00
2023-01-17T22:50:09.950Z,79.00
2023-01-17T22:52:09.961Z,79.00
2023-01-17T22:54:10.002Z,79.00
2023-01-17T22:56:09.903Z,79.00
2023-01-17T22:58:09.920Z,79.00
2023-01-17T23:00:09.930Z,79.00
2023-01-17T23:02:09.924Z,79.00
2023-01-17T23:04:09.940Z,79.00
2023-01-17T23:06:09.917Z,79.00
2023-01-17T23:08:09.931Z,79.00
2023-01-17T23:10:09.999Z,79.00
2023-01-17T23:12:09.912Z,79.00
2023-01-17T23:14:09.950Z,79.00
2023-01-17T23:16:09.958Z,79.00
2023-01-17T23:18:09.991Z,79.00
2023-01-17T23:20:41.029Z,79.00
2023-01-17T23:22:40.009Z,79.00
2023-01-17T23:24:39.944Z,80.00
2023-01-17T23:26:39.940Z,80.00
2023-01-17T23:28:39.924Z,80.00
2023-01-17T23:30:39.972Z,80.00
2023-01-17T23:32:39.968Z,80.00
2023-01-17T23:34:39.996Z,80.00
2023-01-17T23:36:39.919Z,80.00
2023-01-17T23:38:39.895Z,80.00
2023-01-17T23:40:39.957Z,80.00
2023-01-17T23:42:39.920Z,80.00
2023-01-17T23:44:39.946Z,80.00
2023-01-17T23:46:40.064Z,80.00
2023-01-17T23:48:42.938Z,80.00
2023-01-17T23:50:40.033Z,80.00
2023-01-17T23:52:40.000Z,80.00
2023-01-17T23:54:39.973Z,80.00
2023-01-17T23:56:40.020Z,80.00
2023-01-17T23:58:39.945Z,80.00
